Time;durP1;ratioP1;P1;durP2;ratioP2;P2;SDS_P1;SDS_P2;PMS_P1;PMS_P2;Temp;Humidity;BMP_temperature;BMP_pressure;BME280_temperature;BME280_humidity;BME280_pressure;Samples;Min_cycle;Max_cycle;Signal;HPM_P1;HPM_P2
2023/06/24 00:00:57;;;;;;;;;;;;;;;16.84;47.92;100874.56;5058763;28;1106;-57
2023/06/24 00:03:22;;;;;;;;;;;;;;;16.62;48.56;100883.03;5058526;28;1102;-57
2023/06/24 00:05:49;;;;;;;;;;;;;;;16.38;48.44;100878.88;5040963;28;1063;-57
2023/06/24 00:08:31;;;;;;;;;;;;;;;16.24;47.84;100866.72;5058721;28;1975;-56
2023/06/24 00:10:57;;;;;;;;;;;;;;;16.30;47.17;100856.59;5045859;28;1048;-57
2023/06/24 00:13:22;;;;;;;;;;;;;;;16.19;47.01;100856.56;5058660;28;1140;-57
2023/06/24 00:15:48;;;;;;;;;;;;;;;16.21;46.81;100859.84;5057829;28;1092;-57
2023/06/24 00:18:13;;;;;;;;;;;;;;;16.16;46.88;100864.50;5058285;28;1083;-59
2023/06/24 00:20:43;;;;;;;;;;;;;;;16.07;46.88;100867.78;5057999;28;846;-60
2023/06/24 00:23:08;;;;;;;;;;;;;;;16.15;46.55;100857.38;5058101;28;965;-58
2023/06/24 00:25:33;;;;;;;;;;;;;;;16.08;46.66;100863.13;5057967;28;1033;-58
2023/06/24 00:27:59;;;;;;;;;;;;;;;16.00;46.63;100867.19;5057923;28;1983;-58
2023/06/24 00:30:25;;;;;;;;;;;;;;;16.07;46.39;100862.31;5058510;28;1110;-58
2023/06/24 00:32:51;;;;;;;;;;;;;;;16.02;46.50;100848.56;5039960;28;1391;-58
2023/06/24 00:35:17;;;;;;;;;;;;;;;16.03;46.41;100842.00;5040419;28;1188;-58
2023/06/24 00:37:45;;;;;;;;;;;;;;;16.02;46.38;100839.47;5057747;28;1135;-58
2023/06/24 00:40:11;;;;;;;;;;;;;;;16.01;46.15;100855.13;5039852;28;1261;-58
2023/06/24 00:42:37;;;;;;;;;;;;;;;15.95;46.21;100856.22;5040023;28;1085;-58
2023/06/24 00:45:04;;;;;;;;;;;;;;;15.93;46.25;100846.59;5057652;28;934;-58
2023/06/24 00:47:31;;;;;;;;;;;;;;;15.97;46.22;100851.25;5040227;28;1914;-58
2023/06/24 00:49:57;;;;;;;;;;;;;;;16.06;46.02;100849.66;5057771;28;1181;-58
2023/06/24 00:52:23;;;;;;;;;;;;;;;16.04;45.91;100851.84;5057673;28;1012;-57
2023/06/24 00:54:49;;;;;;;;;;;;;;;16.91;47.32;100847.69;5057473;28;1111;-58
2023/06/24 00:57:14;;;;;;;;;;;;;;;16.39;48.10;100844.81;5057150;28;1178;-57
2023/06/24 00:59:40;;;;;;;;;;;;;;;16.30;47.94;100842.88;5056728;28;1116;-58
2023/06/24 01:02:06;;;;;;;;;;;;;;;16.15;47.46;100843.66;5057170;28;1124;-58
2023/06/24 01:04:33;;;;;;;;;;;;;;;16.10;47.24;100843.66;5057235;28;1091;-57
2023/06/24 01:06:59;;;;;;;;;;;;;;;16.11;46.71;100846.13;5039827;28;1902;-58
2023/06/24 01:09:25;;;;;;;;;;;;;;;16.05;46.69;100841.72;5039159;28;861;-58
2023/06/24 01:11:50;;;;;;;;;;;;;;;16.06;46.17;100824.97;5056969;28;1195;-58
2023/06/24 01:14:19;;;;;;;;;;;;;;;16.15;46.12;100832.69;5039423;28;1039;-57
2023/06/24 01:16:57;;;;;;;;;;;;;;;16.04;46.13;100829.91;5057137;28;1071;-58
2023/06/24 01:19:42;;;;;;;;;;;;;;;15.96;46.24;100819.44;5039020;28;1121;-58
2023/06/24 01:22:14;;;;;;;;;;;;;;;15.99;46.11;100827.16;5039177;28;1044;-58
2023/06/24 01:24:39;;;;;;;;;;;;;;;16.74;47.60;100821.28;5039075;28;1199;-58
2023/06/24 01:27:14;;;;;;;;;;;;;;;16.55;48.20;100828.38;5043662;28;1906;-58
2023/06/24 01:29:55;;;;;;;;;;;;;;;16.33;47.94;100812.16;5056883;28;1084;-58
2023/06/24 01:32:33;;;;;;;;;;;;;;;16.17;47.55;100806.66;5038965;28;1271;-57
2023/06/24 01:35:09;;;;;;;;;;;;;;;16.15;47.09;100808.00;5039820;28;1156;-58
2023/06/24 01:37:36;;;;;;;;;;;;;;;16.13;46.55;100812.91;5039711;28;1103;-58
2023/06/24 01:40:10;;;;;;;;;;;;;;;16.06;46.34;100805.78;5043511;28;1148;-57
2023/06/24 01:42:38;;;;;;;;;;;;;;;16.08;46.28;100806.31;5039804;28;1180;-58
2023/06/24 01:45:06;;;;;;;;;;;;;;;15.98;46.32;100802.75;5056352;28;1218;-58
2023/06/24 01:47:31;;;;;;;;;;;;;;;16.04;46.22;100809.88;5038694;28;1897;-58
2023/06/24 01:49:57;;;;;;;;;;;;;;;15.99;46.39;100807.13;5056369;28;1315;-58
2023/06/24 01:52:23;;;;;;;;;;;;;;;16.58;47.66;100805.91;5056828;28;1084;-57
2023/06/24 01:54:49;;;;;;;;;;;;;;;16.29;47.66;100802.84;5056543;28;1219;-57
2023/06/24 01:57:14;;;;;;;;;;;;;;;16.21;47.25;100798.69;5038531;28;1127;-57
2023/06/24 01:59:40;;;;;;;;;;;;;;;16.14;46.96;100806.34;5018523;28;1169;-58
2023/06/24 02:02:06;;;;;;;;;;;;;;;16.07;46.64;100812.94;5038458;28;1658;-57
2023/06/24 02:04:31;;;;;;;;;;;;;;;16.06;46.52;100805.78;5056491;28;1152;-57
2023/06/24 02:06:58;;;;;;;;;;;;;;;16.10;46.06;100816.22;5021976;28;1913;-57
2023/06/24 02:09:24;;;;;;;;;;;;;;;15.99;46.25;100818.94;5055967;28;909;-57
2023/06/24 02:11:49;;;;;;;;;;;;;;;16.12;45.91;100814.84;5038280;28;1128;-57
2023/06/24 02:14:15;;;;;;;;;;;;;;;15.91;46.26;100813.97;5038416;28;1303;-58
2023/06/24 02:16:42;;;;;;;;;;;;;;;15.90;46.17;100818.59;5037980;28;1281;-57
2023/06/24 02:19:08;;;;;;;;;;;;;;;16.04;46.34;100820.84;5056245;28;1131;-57
2023/06/24 02:21:35;;;;;;;;;;;;;;;16.57;47.61;100817.97;5055795;28;1060;-57
2023/06/24 02:24:00;;;;;;;;;;;;;;;16.28;47.52;100826.69;5021955;28;1041;-57
2023/06/24 02:26:26;;;;;;;;;;;;;;;16.18;47.38;100834.91;5056427;28;1265;-57
2023/06/24 02:28:51;;;;;;;;;;;;;;;16.05;47.12;100831.56;5038406;28;1915;-57
2023/06/24 02:31:17;;;;;;;;;;;;;;;16.09;46.91;100837.34;5037888;28;1600;-58
2023/06/24 02:33:42;;;;;;;;;;;;;;;16.04;46.47;100838.13;5021684;28;1199;-58
2023/06/24 02:36:08;;;;;;;;;;;;;;;16.06;46.08;100835.97;5055975;28;1048;-58
2023/06/24 02:38:34;;;;;;;;;;;;;;;16.01;46.07;100835.94;5038214;28;1257;-58
2023/06/24 02:41:02;;;;;;;;;;;;;;;15.90;46.17;100845.22;5037714;28;1112;-58
2023/06/24 02:43:28;;;;;;;;;;;;;;;16.00;45.87;100841.69;5038261;28;1208;-58
2023/06/24 02:45:53;;;;;;;;;;;;;;;15.95;46.16;100837.00;5055554;28;1152;-58
2023/06/24 02:48:19;;;;;;;;;;;;;;;15.92;45.81;100837.53;5038111;28;1976;-58
2023/06/24 02:50:45;;;;;;;;;;;;;;;16.00;45.64;100836.19;5037987;28;1116;-58
2023/06/24 02:53:11;;;;;;;;;;;;;;;15.89;46.10;100840.81;5038129;28;1083;-57
2023/06/24 02:55:37;;;;;;;;;;;;;;;15.84;45.96;100836.13;5038209;28;1226;-57
2023/06/24 02:58:07;;;;;;;;;;;;;;;15.96;45.69;100837.81;5038103;28;880;-57
2023/06/24 03:00:33;;;;;;;;;;;;;;;15.93;45.63;100849.34;5057545;28;1176;-57
2023/06/24 03:03:19;;;;;;;;;;;;;;;15.86;45.68;100844.09;5063454;28;1115;-56
2023/06/24 03:05:50;;;;;;;;;;;;;;;15.88;46.00;100850.16;5037623;28;1238;-58
2023/06/24 03:08:16;;;;;;;;;;;;;;;15.82;46.06;100849.31;5021102;28;1902;-58
2023/06/24 03:10:43;;;;;;;;;;;;;;;16.85;46.94;100849.56;5037315;28;1071;-58
2023/06/24 03:13:14;;;;;;;;;;;;;;;16.23;47.84;100854.13;5037276;28;1592;-58
2023/06/24 03:15:44;;;;;;;;;;;;;;;16.15;47.41;100858.19;5037250;28;1102;-57
2023/06/24 03:18:11;;;;;;;;;;;;;;;16.13;47.15;100854.91;5037986;28;1152;-52
2023/06/24 03:20:38;;;;;;;;;;;;;;;16.08;46.60;100863.94;5037683;28;1206;-51
2023/06/24 03:23:07;;;;;;;;;;;;;;;16.01;46.43;100866.09;5034863;28;1408;-55
2023/06/24 03:25:34;;;;;;;;;;;;;;;16.03;46.47;100860.34;5022529;28;1388;-54
2023/06/24 03:28:09;;;;;;;;;;;;;;;15.96;46.33;100866.06;5059410;28;1913;-55
2023/06/24 03:30:41;;;;;;;;;;;;;;;16.01;45.91;100862.53;5041274;28;1625;-54
2023/06/24 03:33:06;;;;;;;;;;;;;;;15.93;46.01;100858.38;5040928;28;1147;-53
2023/06/24 03:35:32;;;;;;;;;;;;;;;15.92;46.12;100867.69;5059337;28;1088;-53
2023/06/24 03:38:02;;;;;;;;;;;;;;;15.85;46.09;100878.06;5040810;28;1599;-54
2023/06/24 03:40:29;;;;;;;;;;;;;;;15.86;46.24;100872.31;5040979;28;1582;-53
2023/06/24 03:42:55;;;;;;;;;;;;;;;15.87;46.03;100867.69;5040809;28;1152;-58
2023/06/24 03:45:21;;;;;;;;;;;;;;;15.90;46.19;100872.63;5040851;28;1195;-56
2023/06/24 03:47:47;;;;;;;;;;;;;;;15.82;46.10;100881.34;5041103;28;1914;-58
2023/06/24 03:50:13;;;;;;;;;;;;;;;15.81;46.08;100886.03;5059132;28;1222;-58
2023/06/24 03:52:38;;;;;;;;;;;;;;;15.84;46.04;100890.16;5040365;28;1044;-59
2023/06/24 03:55:06;;;;;;;;;;;;;;;15.85;46.27;100880.81;5041047;28;1138;-60
2023/06/24 03:57:31;;;;;;;;;;;;;;;15.85;46.11;100886.31;5058253;28;1143;-61
2023/06/24 03:59:57;;;;;;;;;;;;;;;15.87;46.22;100884.13;5040484;28;1159;-55
2023/06/24 04:02:23;;;;;;;;;;;;;;;15.82;46.02;100879.47;5058839;28;1163;-52
2023/06/24 04:04:50;;;;;;;;;;;;;;;15.85;46.33;100880.81;5058770;28;1080;-52
2023/06/24 04:07:27;;;;;;;;;;;;;;;15.81;45.99;100882.44;5040664;28;1906;-55
2023/06/24 04:09:55;;;;;;;;;;;;;;;16.64;47.42;100886.34;5040533;28;1132;-54
2023/06/24 04:12:21;;;;;;;;;;;;;;;16.47;48.79;100890.16;5045312;28;1092;-54
2023/06/24 04:14:46;;;;;;;;;;;;;;;16.21;48.28;100900.19;5038677;28;1278;-54
2023/06/24 04:17:12;;;;;;;;;;;;;;;16.09;48.13;100897.69;5056994;28;1056;-54
2023/06/24 04:19:39;;;;;;;;;;;;;;;16.14;47.34;100896.88;5058486;28;1059;-56
2023/06/24 04:22:04;;;;;;;;;;;;;;;15.99;47.36;100903.94;5040479;28;1220;-56
2023/06/24 04:24:30;;;;;;;;;;;;;;;16.02;46.98;100897.94;5039956;28;1123;-56
2023/06/24 04:26:55;;;;;;;;;;;;;;;16.01;46.87;100904.50;5039632;28;1989;-56
2023/06/24 04:29:21;;;;;;;;;;;;;;;16.06;46.74;100906.44;5057739;28;1075;-56
2023/06/24 04:31:47;;;;;;;;;;;;;;;16.03;46.43;100902.34;5039481;28;1136;-56
2023/06/24 04:34:13;;;;;;;;;;;;;;;16.00;46.41;100910.25;5033258;28;1171;-56
2023/06/24 04:36:38;;;;;;;;;;;;;;;15.97;46.59;100917.09;5033129;28;1342;-55
2023/06/24 04:39:04;;;;;;;;;;;;;;;16.81;47.40;100910.81;5057985;28;1384;-55
2023/06/24 04:41:31;;;;;;;;;;;;;;;16.33;48.49;100913.72;5040239;28;1384;-56
2023/06/24 04:43:57;;;;;;;;;;;;;;;16.22;47.85;100915.56;5057545;28;1222;-56
2023/06/24 04:46:22;;;;;;;;;;;;;;;16.10;47.87;100914.97;5056889;28;1152;-55
2023/06/24 04:48:48;;;;;;;;;;;;;;;16.16;47.24;100916.63;5038186;28;1910;-55
2023/06/24 04:51:13;;;;;;;;;;;;;;;16.03;47.17;100917.94;5051334;28;1068;-56
2023/06/24 04:53:39;;;;;;;;;;;;;;;16.14;46.85;100927.06;5057644;28;1079;-56
2023/06/24 04:56:05;;;;;;;;;;;;;;;17.68;45.16;100921.03;5057509;28;1103;-56
2023/06/24 04:58:30;;;;;;;;;;;;;;;17.21;46.49;100928.50;5049983;28;993;-56
2023/06/24 05:00:56;;;;;;;;;;;;;;;17.14;46.94;100923.25;5038655;28;1195;-56
2023/06/24 05:03:21;;;;;;;;;;;;;;;16.88;47.99;100920.47;5057577;28;1146;-56
2023/06/24 05:05:47;;;;;;;;;;;;;;;16.97;48.00;100923.53;5056782;28;1012;-56
2023/06/24 05:08:12;;;;;;;;;;;;;;;16.90;48.41;100928.44;5057544;28;1971;-56
2023/06/24 05:10:38;;;;;;;;;;;;;;;16.83;48.52;100936.06;5051112;28;1087;-56
2023/06/24 05:13:03;;;;;;;;;;;;;;;16.81;48.84;100933.59;5056991;28;1080;-56
2023/06/24 05:15:29;;;;;;;;;;;;;;;16.71;49.16;100920.66;5057179;28;1120;-56
2023/06/24 05:17:54;;;;;;;;;;;;;;;16.67;49.66;100916.00;5057343;28;1068;-56
2023/06/24 05:20:20;;;;;;;;;;;;;;;16.69;49.55;100922.88;5056993;28;1064;-56
2023/06/24 05:22:45;;;;;;;;;;;;;;;16.64;50.06;100919.28;5057100;28;1122;-56
2023/06/24 05:25:11;;;;;;;;;;;;;;;16.56;50.27;100924.22;5039405;28;1223;-56
2023/06/24 05:27:36;;;;;;;;;;;;;;;16.55;50.38;100933.53;5037054;28;1965;-56
2023/06/24 05:30:02;;;;;;;;;;;;;;;16.52;50.76;100927.75;5055397;28;1060;-56
2023/06/24 05:32:28;;;;;;;;;;;;;;;16.56;50.50;100929.72;5056812;28;1234;-56
2023/06/24 05:34:53;;;;;;;;;;;;;;;16.46;51.15;100928.84;5052162;28;1052;-56
2023/06/24 05:37:19;;;;;;;;;;;;;;;16.39;51.35;100927.16;5048036;28;1024;-56
2023/06/24 05:39:44;;;;;;;;;;;;;;;16.39;51.47;100934.56;5052444;28;1214;-56
2023/06/24 05:42:09;;;;;;;;;;;;;;;16.41;51.71;100933.22;5048636;28;1297;-56
2023/06/24 05:44:35;;;;;;;;;;;;;;;16.41;51.61;100932.38;5055944;28;1116;-56
2023/06/24 05:47:00;;;;;;;;;;;;;;;16.46;51.77;100926.91;5055927;28;1905;-55
2023/06/24 05:49:26;;;;;;;;;;;;;;;16.40;51.74;100925.25;5056546;28;1431;-56
2023/06/24 05:51:51;;;;;;;;;;;;;;;16.35;51.96;100917.81;5056645;28;1321;-56
2023/06/24 05:54:17;;;;;;;;;;;;;;;16.35;52.34;100920.56;5056689;28;1282;-56
2023/06/24 05:56:42;;;;;;;;;;;;;;;16.42;52.03;100923.06;5056159;28;1317;-56
2023/06/24 05:59:08;;;;;;;;;;;;;;;16.40;52.11;100914.28;5056295;28;1020;-56
2023/06/24 06:01:33;;;;;;;;;;;;;;;16.32;52.47;100921.09;5056380;28;1377;-56
2023/06/24 06:03:59;;;;;;;;;;;;;;;16.32;52.59;100912.84;5056617;28;1345;-56
2023/06/24 06:06:24;;;;;;;;;;;;;;;16.32;52.71;100912.06;5056230;28;1341;-56
2023/06/24 06:08:50;;;;;;;;;;;;;;;16.34;52.60;100905.19;5056210;28;1980;-60
2023/06/24 06:11:15;;;;;;;;;;;;;;;16.21;52.95;100911.97;5055852;28;1387;-58
2023/06/24 06:13:41;;;;;;;;;;;;;;;16.31;52.77;100911.19;5056112;28;1356;-59
2023/06/24 06:16:07;;;;;;;;;;;;;;;17.23;51.51;100912.53;5056679;28;1397;-58
2023/06/24 06:18:32;;;;;;;;;;;;;;;17.20;51.76;100913.91;5055728;28;1360;-58
2023/06/24 06:20:58;;;;;;;;;;;;;;;16.82;52.99;100905.06;5055828;28;1336;-58
2023/06/24 06:23:24;;;;;;;;;;;;;;;16.71;53.16;100912.44;5056004;28;1384;-58
2023/06/24 06:25:50;;;;;;;;;;;;;;;16.64;53.10;100909.13;5056263;28;1332;-58
2023/06/24 06:28:15;;;;;;;;;;;;;;;16.73;52.96;100903.91;5055953;28;1913;-59
2023/06/24 06:30:41;;;;;;;;;;;;;;;16.64;53.08;100906.38;5056067;28;1318;-58
2023/06/24 06:33:06;;;;;;;;;;;;;;;16.63;53.16;100910.22;5056052;28;1087;-58
2023/06/24 06:35:32;;;;;;;;;;;;;;;16.46;53.55;100899.47;5055955;28;1293;-58
2023/06/24 06:37:57;;;;;;;;;;;;;;;16.40;53.77;100901.38;5055556;28;1258;-58
2023/06/24 06:40:23;;;;;;;;;;;;;;;16.48;53.67;100901.94;5055850;28;1324;-58
2023/06/24 06:42:48;;;;;;;;;;;;;;;16.49;53.60;100903.59;5055447;28;1156;-58
2023/06/24 06:45:14;;;;;;;;;;;;;;;16.52;53.53;100898.41;5055992;28;1313;-58
2023/06/24 06:47:39;;;;;;;;;;;;;;;16.46;53.37;100901.41;5055311;28;1987;-58
2023/06/24 06:50:05;;;;;;;;;;;;;;;16.36;53.89;100889.28;5055382;28;1341;-59
2023/06/24 06:52:31;;;;;;;;;;;;;;;16.40;53.65;100893.13;5055912;28;1345;-59
2023/06/24 06:54:56;;;;;;;;;;;;;;;16.43;53.71;100884.34;5055776;28;1330;-59
2023/06/24 06:57:22;;;;;;;;;;;;;;;16.39;54.17;100885.19;5055449;28;1309;-58
2023/06/24 06:59:49;;;;;;;;;;;;;;;16.20;54.37;100873.84;5058719;28;1383;-61
2023/06/24 07:02:15;;;;;;;;;;;;;;;16.32;53.97;100887.34;5047355;28;1286;-60
2023/06/24 07:04:40;;;;;;;;;;;;;;;16.31;54.07;100875.53;5059636;28;1313;-59
2023/06/24 07:07:06;;;;;;;;;;;;;;;16.43;53.84;100881.63;5059591;28;1898;-59
2023/06/24 07:09:31;;;;;;;;;;;;;;;16.48;53.49;100877.22;5059484;28;1103;-59
2023/06/24 07:11:57;;;;;;;;;;;;;;;16.29;53.98;100877.72;5059359;28;1127;-59
2023/06/24 07:14:22;;;;;;;;;;;;;;;16.37;53.71;100879.97;5059666;28;1366;-59
2023/06/24 07:16:48;;;;;;;;;;;;;;;16.33;53.82;100884.34;5059806;28;1352;-59
2023/06/24 07:19:13;;;;;;;;;;;;;;;17.22;53.19;100880.66;5059129;28;1400;-59
2023/06/24 07:21:39;;;;;;;;;;;;;;;17.26;53.58;100890.00;5059222;28;1326;-59
2023/06/24 07:24:05;;;;;;;;;;;;;;;16.97;54.37;100887.81;5059207;28;1005;-60
2023/06/24 07:26:30;;;;;;;;;;;;;;;16.77;54.38;100886.66;5059279;28;1218;-60
2023/06/24 07:28:56;;;;;;;;;;;;;;;16.71;54.72;100876.75;5059867;28;1910;-60
2023/06/24 07:31:22;;;;;;;;;;;;;;;16.66;54.68;100886.88;5059458;28;1401;-60
2023/06/24 07:33:47;;;;;;;;;;;;;;;16.55;54.69;100886.88;5059511;28;1361;-59
2023/06/24 07:36:13;;;;;;;;;;;;;;;16.63;54.26;100896.50;5058758;28;1337;-60
2023/06/24 07:38:39;;;;;;;;;;;;;;;16.60;54.50;100897.03;5059046;28;1043;-60
2023/06/24 07:41:04;;;;;;;;;;;;;;;16.48;54.75;100899.19;5059052;28;1305;-59
2023/06/24 07:43:30;;;;;;;;;;;;;;;16.53;54.43;100901.97;5058865;28;1242;-60
2023/06/24 07:45:55;;;;;;;;;;;;;;;16.48;54.74;100900.03;5059064;28;1270;-59
2023/06/24 07:48:21;;;;;;;;;;;;;;;16.56;54.12;100909.66;5058085;28;1990;-59
2023/06/24 07:50:46;;;;;;;;;;;;;;;16.50;54.58;100902.50;5058847;28;1305;-60
2023/06/24 07:53:12;;;;;;;;;;;;;;;16.42;54.51;100896.44;5059063;28;1067;-60
2023/06/24 07:55:38;;;;;;;;;;;;;;;16.54;53.99;100906.38;5058565;28;1396;-59
2023/06/24 07:58:04;;;;;;;;;;;;;;;16.54;54.25;100898.94;5058655;28;1328;-60
2023/06/24 08:00:30;;;;;;;;;;;;;;;16.51;54.52;100896.75;5058470;28;1030;-60
2023/06/24 08:02:57;;;;;;;;;;;;;;;16.36;54.92;100896.69;5058661;28;1366;-60
2023/06/24 08:05:22;;;;;;;;;;;;;;;16.41;54.44;100894.78;5059015;28;1314;-60
2023/06/24 08:07:48;;;;;;;;;;;;;;;16.38;54.76;100895.34;5058976;28;1982;-59
2023/06/24 08:10:13;;;;;;;;;;;;;;;16.39;54.57;100894.22;5058356;28;1321;-60
2023/06/24 08:12:39;;;;;;;;;;;;;;;16.51;54.45;100893.16;5058173;28;1139;-60
2023/06/24 08:15:04;;;;;;;;;;;;;;;16.43;54.43;100894.53;5058456;28;1210;-60
2023/06/24 08:17:30;;;;;;;;;;;;;;;16.54;54.08;100892.63;5058697;28;1301;-60
2023/06/24 08:19:55;;;;;;;;;;;;;;;16.49;54.17;100892.63;5058217;28;1392;-59
2023/06/24 08:22:21;;;;;;;;;;;;;;;16.46;54.34;100890.41;5058288;28;1345;-60
2023/06/24 08:24:46;;;;;;;;;;;;;;;16.43;54.36;100892.59;5058166;28;1286;-59
2023/06/24 08:27:12;;;;;;;;;;;;;;;16.38;54.55;100889.00;5058531;28;1906;-60
2023/06/24 08:29:38;;;;;;;;;;;;;;;16.43;54.62;100887.09;5058181;28;1297;-60
2023/06/24 08:32:04;;;;;;;;;;;;;;;16.39;54.51;100883.25;5058028;28;1321;-60
2023/06/24 08:34:30;;;;;;;;;;;;;;;16.39;54.80;100883.25;5057983;28;1345;-59
2023/06/24 08:36:55;;;;;;;;;;;;;;;16.38;54.91;100883.53;5057399;28;1036;-60
2023/06/24 08:39:21;;;;;;;;;;;;;;;16.39;54.69;100887.91;5058174;28;1182;-59
2023/06/24 08:41:46;;;;;;;;;;;;;;;16.43;54.60;100878.88;5057911;28;1108;-60
2023/06/24 08:44:12;;;;;;;;;;;;;;;16.41;54.45;100889.31;5056849;28;1301;-59
2023/06/24 08:46:37;;;;;;;;;;;;;;;16.34;54.71;100880.50;5057926;28;1320;-59
2023/06/24 08:49:06;;;;;;;;;;;;;;;16.34;54.59;100877.75;5039139;28;1975;-59
2023/06/24 08:51:33;;;;;;;;;;;;;;;16.36;54.53;100875.56;5039748;28;1230;-60
2023/06/24 08:53:58;;;;;;;;;;;;;;;16.45;54.62;100883.28;5039689;28;1222;-60
2023/06/24 08:56:24;;;;;;;;;;;;;;;16.38;54.61;100889.84;5057350;28;1250;-59
2023/06/24 08:58:50;;;;;;;;;;;;;;;16.32;54.83;100888.16;5039503;28;1227;-59
2023/06/24 09:01:16;;;;;;;;;;;;;;;16.38;54.43;100889.00;5039291;28;1298;-60
2023/06/24 09:03:41;;;;;;;;;;;;;;;16.40;54.71;100887.66;5039283;28;1245;-59
2023/06/24 09:06:06;;;;;;;;;;;;;;;16.78;55.01;100887.47;5057268;28;1305;-60
2023/06/24 09:08:35;;;;;;;;;;;;;;;17.66;54.43;100882.00;5056868;28;1988;-57
2023/06/24 09:11:01;;;;;;;;;;;;;;;17.14;55.61;100890.28;5056901;28;1183;-57
2023/06/24 09:13:38;;;;;;;;;;;;;;;17.00;55.35;100884.50;5056197;28;1265;-56
2023/06/24 09:16:13;;;;;;;;;;;;;;;16.92;55.48;100880.38;5057117;28;1219;-57
2023/06/24 09:18:39;;;;;;;;;;;;;;;16.84;55.27;100882.81;5056502;28;1297;-57
2023/06/24 09:21:05;;;;;;;;;;;;;;;16.66;55.55;100879.50;5056191;28;1238;-57
2023/06/24 09:23:32;;;;;;;;;;;;;;;16.77;55.11;100886.66;5056584;28;1234;-57
2023/06/24 09:25:58;;;;;;;;;;;;;;;16.82;55.11;100885.00;5038271;28;1243;-57
2023/06/24 09:28:27;;;;;;;;;;;;;;;16.71;55.07;100886.91;5056516;28;1917;-57
2023/06/24 09:31:05;;;;;;;;;;;;;;;16.68;54.98;100885.53;5057057;28;1206;-57
2023/06/24 09:33:31;;;;;;;;;;;;;;;16.63;55.06;100885.50;5056390;28;1178;-56
2023/06/24 09:35:56;;;;;;;;;;;;;;;16.76;54.61;100884.19;5056136;28;1339;-57
2023/06/24 09:38:31;;;;;;;;;;;;;;;16.69;54.79;100884.44;5038809;28;1340;-57
2023/06/24 09:41:01;;;;;;;;;;;;;;;16.65;54.90;100885.22;5056316;28;1198;-56
2023/06/24 09:43:27;;;;;;;;;;;;;;;16.52;55.35;100884.69;5056288;28;1253;-56
2023/06/24 09:45:52;;;;;;;;;;;;;;;16.56;55.33;100884.94;5038586;28;1322;-57
2023/06/24 09:48:18;;;;;;;;;;;;;;;16.62;54.83;100878.38;5055634;28;1994;-57
2023/06/24 09:50:43;;;;;;;;;;;;;;;16.54;55.14;100881.66;5056372;28;1250;-56
2023/06/24 09:53:09;;;;;;;;;;;;;;;16.59;55.16;100887.16;5038641;28;1250;-56
2023/06/24 09:55:34;;;;;;;;;;;;;;;16.55;55.13;100886.03;5055776;28;1261;-57
2023/06/24 09:58:00;;;;;;;;;;;;;;;16.52;55.38;100875.59;5055980;28;1254;-56
2023/06/24 10:00:26;;;;;;;;;;;;;;;16.64;54.98;100873.44;5038243;28;1333;-56
2023/06/24 10:02:52;;;;;;;;;;;;;;;16.60;55.22;100864.09;5055923;28;1182;-56
2023/06/24 10:05:18;;;;;;;;;;;;;;;16.65;55.38;100866.84;5037806;28;1255;-57
2023/06/24 10:07:43;;;;;;;;;;;;;;;16.59;55.50;100871.50;5038397;28;1989;-58
2023/06/24 10:10:09;;;;;;;;;;;;;;;16.63;55.29;100866.28;5055713;28;1327;-57
2023/06/24 10:12:35;;;;;;;;;;;;;;;16.65;54.98;100866.84;5055495;28;1237;-58
2023/06/24 10:15:00;;;;;;;;;;;;;;;16.57;55.39;100870.13;5034913;28;1388;-58
2023/06/24 10:17:26;;;;;;;;;;;;;;;16.63;54.98;100869.03;5056340;28;1226;-57
2023/06/24 10:19:52;;;;;;;;;;;;;;;16.48;55.26;100869.00;5055926;28;1273;-59
2023/06/24 10:22:17;;;;;;;;;;;;;;;16.62;55.20;100878.38;5055658;28;1266;-57
2023/06/24 10:24:45;;;;;;;;;;;;;;;16.51;55.24;100866.56;5037781;28;1314;-57
2023/06/24 10:27:15;;;;;;;;;;;;;;;16.66;54.92;100865.78;5037893;28;1921;-57
2023/06/24 10:29:44;;;;;;;;;;;;;;;16.57;55.04;100859.16;5055640;28;1304;-59
2023/06/24 10:32:09;;;;;;;;;;;;;;;16.60;55.01;100867.66;5055899;28;1261;-60
2023/06/24 10:34:38;;;;;;;;;;;;;;;16.57;55.13;100848.16;5055576;28;1285;-59
2023/06/24 10:37:18;;;;;;;;;;;;;;;16.63;54.78;100863.53;5054856;28;1241;-59
2023/06/24 10:39:50;;;;;;;;;;;;;;;16.66;54.77;100867.66;5055732;28;1187;-59
2023/06/24 10:42:19;;;;;;;;;;;;;;;16.55;54.97;100856.69;5055529;28;1258;-59
2023/06/24 10:44:47;;;;;;;;;;;;;;;16.50;55.21;100858.59;5055336;28;1175;-59
2023/06/24 10:47:13;;;;;;;;;;;;;;;16.53;55.06;100863.53;5055274;28;1910;-59
2023/06/24 10:49:38;;;;;;;;;;;;;;;16.50;55.33;100848.44;5055226;28;1289;-59
2023/06/24 10:52:04;;;;;;;;;;;;;;;16.58;55.26;100849.81;5055633;28;1244;-59
2023/06/24 10:54:29;;;;;;;;;;;;;;;16.49;55.42;100851.44;5055630;28;1403;-59
2023/06/24 10:56:55;;;;;;;;;;;;;;;16.50;55.37;100845.69;5055008;28;1214;-59
2023/06/24 10:59:21;;;;;;;;;;;;;;;16.61;55.14;100854.75;5055162;28;1273;-59
2023/06/24 11:01:53;;;;;;;;;;;;;;;16.54;55.16;100844.03;5037131;28;1171;-59
2023/06/24 11:04:19;;;;;;;;;;;;;;;16.49;55.16;100846.78;5055442;28;1222;-59
2023/06/24 11:06:56;;;;;;;;;;;;;;;16.53;55.06;100836.91;5055151;28;1222;-59
2023/06/24 11:09:22;;;;;;;;;;;;;;;16.56;54.78;100843.78;5055407;28;1913;-59
2023/06/24 11:11:47;;;;;;;;;;;;;;;16.56;54.76;100843.78;5055673;28;1191;-59
2023/06/24 11:14:13;;;;;;;;;;;;;;;16.54;54.84;100841.28;5036972;28;1519;-59
2023/06/24 11:16:38;;;;;;;;;;;;;;;16.55;54.92;100840.22;5037254;28;1389;-59
2023/06/24 11:19:04;;;;;;;;;;;;;;;16.56;54.84;100841.03;5055095;28;1135;-59
2023/06/24 11:21:31;;;;;;;;;;;;;;;16.49;55.13;100832.22;5055146;28;1215;-59
2023/06/24 11:24:00;;;;;;;;;;;;;;;16.46;54.98;100824.53;5037637;28;1231;-59
2023/06/24 11:26:25;;;;;;;;;;;;;;;16.45;55.06;100825.63;5054633;28;1226;-59
2023/06/24 11:28:51;;;;;;;;;;;;;;;16.44;55.33;100824.81;5036760;28;1979;-59
2023/06/24 11:31:16;;;;;;;;;;;;;;;16.48;54.91;100808.63;5055369;28;1238;-60
2023/06/24 11:33:42;;;;;;;;;;;;;;;16.42;55.12;100814.13;5055236;28;1202;-59
2023/06/24 11:36:10;;;;;;;;;;;;;;;16.47;55.02;100810.53;5055098;28;1353;-59
2023/06/24 11:38:36;;;;;;;;;;;;;;;16.42;55.09;100814.13;5054530;28;1301;-59
2023/06/24 11:41:01;;;;;;;;;;;;;;;16.36;55.21;100800.66;5054725;28;1241;-59
2023/06/24 11:43:27;;;;;;;;;;;;;;;16.47;55.11;100805.06;5037365;28;1352;-59
2023/06/24 11:45:52;;;;;;;;;;;;;;;16.46;55.19;100802.59;5058183;28;1261;-59
2023/06/24 11:48:19;;;;;;;;;;;;;;;16.51;54.87;100799.81;5058394;28;1913;-59
2023/06/24 11:50:52;;;;;;;;;;;;;;;16.45;55.15;100795.44;5058204;28;1202;-59
2023/06/24 11:53:18;;;;;;;;;;;;;;;16.52;54.95;100796.00;5058749;28;1150;-59
2023/06/24 11:55:43;;;;;;;;;;;;;;;16.50;54.95;100803.69;5040701;28;1356;-59
2023/06/24 11:58:09;;;;;;;;;;;;;;;16.43;55.22;100810.25;5058073;28;1210;-59
2023/06/24 12:00:35;;;;;;;;;;;;;;;16.46;55.08;100805.34;5058339;28;1230;-59
2023/06/24 12:03:01;;;;;;;;;;;;;;;16.54;54.76;100800.13;5040406;28;1223;-61
2023/06/24 12:05:29;;;;;;;;;;;;;;;16.45;55.05;100799.00;5058213;28;1246;-60
2023/06/24 12:07:55;;;;;;;;;;;;;;;16.42;55.27;100791.31;5058327;28;1906;-59
2023/06/24 12:10:21;;;;;;;;;;;;;;;16.44;55.06;100791.88;5040412;28;1302;-60
2023/06/24 12:12:46;;;;;;;;;;;;;;;16.42;55.34;100794.91;5058277;28;1269;-59
2023/06/24 12:15:12;;;;;;;;;;;;;;;16.46;54.97;100792.41;5057953;28;985;-60
2023/06/24 12:17:37;;;;;;;;;;;;;;;16.42;54.95;100797.66;5058229;28;1230;-60
2023/06/24 12:20:03;;;;;;;;;;;;;;;16.40;55.01;100793.53;5057490;28;1249;-59
2023/06/24 12:22:29;;;;;;;;;;;;;;;16.41;55.13;100806.97;5058132;28;1254;-60
2023/06/24 12:24:54;;;;;;;;;;;;;;;17.01;55.78;100797.41;5057629;28;1317;-60
2023/06/24 12:27:20;;;;;;;;;;;;;;;17.54;56.27;100791.53;5057079;28;1976;-59
2023/06/24 12:29:45;;;;;;;;;;;;;;;17.15;56.44;100797.69;5057798;28;1285;-59
2023/06/24 12:32:10;;;;;;;;;;;;;;;16.98;56.54;100790.53;5050583;28;928;-59
2023/06/24 12:34:36;;;;;;;;;;;;;;;16.87;56.49;100788.88;5051909;28;1068;-59
2023/06/24 12:37:01;;;;;;;;;;;;;;;16.93;55.61;100802.38;5057940;28;1120;-59
2023/06/24 12:39:27;;;;;;;;;;;;;;;16.86;55.52;100798.22;5044274;28;945;-59
2023/06/24 12:41:52;;;;;;;;;;;;;;;16.84;55.61;100798.47;5057560;28;1230;-59
2023/06/24 12:44:18;;;;;;;;;;;;;;;16.75;55.50;100789.97;5057814;28;1376;-60